Time;durP1;ratioP1;P1;durP2;ratioP2;P2;SDS_P1;SDS_P2;PMS_P1;PMS_P2;Temp;Humidity;BMP_temperature;BMP_pressure;BME280_temperature;BME280_humidity;BME280_pressure;Samples;Min_cycle;Max_cycle;Signal;HPM_P1;HPM_P2
2021/06/14 00:05:48;;;;;;;14.10;2.67;;;24.10;59.60;;;;;;11968039;28;20045;-76
2021/06/14 00:11:34;;;;;;;2.70;2.40;;;24.10;60.30;;;;;;11962437;28;20060;-76
2021/06/14 00:17:21;;;;;;;2.60;2.05;;;24.00;60.80;;;;;;11958349;28;20049;-75
2021/06/14 00:23:12;;;;;;;4.10;1.88;;;23.90;61.50;;;;;;11964286;28;20057;-75
2021/06/14 00:28:59;;;;;;;4.25;2.00;;;23.70;62.10;;;;;;11964673;28;20053;-76
2021/06/14 00:34:45;;;;;;;4.05;2.30;;;23.60;62.80;;;;;;11955027;28;20048;-75
2021/06/14 00:40:34;;;;;;;8.48;2.45;;;23.40;63.40;;;;;;11958156;28;20480;-75
2021/06/14 00:46:21;;;;;;;3.63;2.20;;;23.40;63.70;;;;;;11937377;28;20672;-75
2021/06/14 00:52:08;;;;;;;3.08;2.10;;;23.40;63.60;;;;;;11952728;28;20579;-75
2021/06/14 00:57:56;;;;;;;5.93;2.20;;;23.30;63.70;;;;;;11965542;28;20067;-75
2021/06/14 01:03:43;;;;;;;4.35;2.70;;;23.20;63.90;;;;;;11955854;28;20064;-75
2021/06/14 01:09:30;;;;;;;3.85;2.53;;;23.20;65.20;;;;;;11958847;28;20515;-75
2021/06/14 01:15:21;;;;;;;5.72;2.15;;;23.10;64.40;;;;;;11972046;28;20424;-76
2021/06/14 01:21:14;;;;;;;4.57;2.35;;;23.00;64.50;;;;;;11949659;28;20057;-75
2021/06/14 01:27:04;;;;;;;5.18;2.40;;;22.90;64.70;;;;;;11943026;28;20049;-81
2021/06/14 01:32:53;;;;;;;3.90;2.58;;;22.90;65.00;;;;;;11966250;28;20053;-81
2021/06/14 01:38:52;;;;;;;4.60;2.10;;;22.90;65.50;;;;;;11958398;28;20053;-81
2021/06/14 10:27:15;;;;;;;12.27;3.90;;;26.40;54.80;;;;;;12158917;27;20504;-75
2021/06/14 10:33:04;;;;;;;12.82;3.00;;;26.60;53.30;;;;;;12151015;27;20047;-73
2021/06/14 10:38:52;;;;;;;8.88;2.83;;;26.80;51.10;;;;;;12195409;27;20594;-73
2021/06/14 10:44:41;;;;;;;8.65;3.00;;;27.00;51.80;;;;;;12202428;27;20051;-75
2021/06/14 10:50:32;;;;;;;9.23;3.20;;;27.00;50.50;;;;;;12207066;27;20412;-76
2021/06/14 10:56:21;;;;;;;6.97;3.08;;;27.10;50.40;;;;;;12202220;27;20043;-75
2021/06/14 11:02:11;;;;;;;17.88;5.18;;;27.40;50.00;;;;;;12200328;27;20401;-75
2021/06/14 11:08:01;;;;;;;9.77;2.83;;;27.50;49.70;;;;;;12202214;27;20058;-75
2021/06/14 11:13:51;;;;;;;7.70;2.92;;;27.40;46.50;;;;;;12177348;27;20058;-75
2021/06/14 11:19:39;;;;;;;6.95;2.95;;;27.50;47.60;;;;;;12187879;27;20051;-74
2021/06/14 11:25:29;;;;;;;6.68;3.22;;;27.80;48.60;;;;;;12152118;27;20052;-76
2021/06/14 11:31:18;;;;;;;8.45;2.60;;;27.80;45.30;;;;;;12156141;27;20104;-74
2021/06/14 11:37:07;;;;;;;8.13;2.97;;;27.80;46.60;;;;;;12159318;27;20058;-74
2021/06/14 11:43:00;;;;;;;6.70;2.53;;;28.10;43.30;;;;;;12141370;27;20082;-75
2021/06/14 11:48:48;;;;;;;5.97;2.85;;;28.10;43.40;;;;;;12171305;27;20073;-74
2021/06/14 11:54:37;;;;;;;7.18;2.30;;;28.20;43.40;;;;;;12130179;27;20101;-74
2021/06/14 12:00:29;;;;;;;8.10;2.70;;;28.30;42.90;;;;;;12166383;27;20043;-78
2021/06/14 12:06:16;;;;;;;5.60;2.30;;;28.30;45.10;;;;;;12155749;27;20056;-76
2021/06/14 12:12:06;;;;;;;7.75;3.10;;;28.60;44.10;;;;;;12123016;27;20059;-79
2021/06/14 12:17:53;;;;;;;8.10;3.13;;;28.90;44.20;;;;;;12124018;27;20059;-76
2021/06/14 12:23:44;;;;;;;14.30;5.35;;;29.00;41.10;;;;;;12150781;27;20212;-79
2021/06/14 12:29:32;;;;;;;13.88;4.85;;;29.20;42.00;;;;;;12141398;27;20422;-83
2021/06/14 12:35:19;;;;;;;12.02;6.22;;;29.30;40.50;;;;;;12132299;27;20099;-77
2021/06/14 12:41:07;;;;;;;6.43;2.40;;;29.50;42.20;;;;;;12123234;28;20521;-76
2021/06/14 12:46:57;;;;;;;6.28;2.42;;;29.60;41.70;;;;;;12131237;28;20557;-75
2021/06/14 12:52:44;;;;;;;6.38;2.60;;;29.80;40.80;;;;;;12129410;27;20055;-75
2021/06/14 12:58:39;;;;;;;6.32;2.45;;;29.90;41.50;;;;;;12128122;27;20066;-75
2021/06/14 13:04:28;;;;;;;5.28;2.30;;;30.10;40.20;;;;;;12128616;27;20083;-75
2021/06/14 13:10:15;;;;;;;4.28;2.60;;;30.20;40.20;;;;;;12126392;27;20051;-74
2021/06/14 13:16:06;;;;;;;5.32;2.10;;;30.30;39.70;;;;;;12128727;27;20056;-75
2021/06/14 13:22:09;;;;;;;6.35;2.15;;;30.40;37.70;;;;;;12124809;27;20134;-75
2021/06/14 13:27:59;;;;;;;6.60;2.30;;;30.30;39.30;;;;;;12127446;28;20051;-75
2021/06/14 13:33:57;;;;;;;3.40;1.92;;;30.40;37.70;;;;;;12138511;27;20774;-82
2021/06/14 13:39:46;;;;;;;6.32;2.10;;;30.50;37.50;;;;;;12137281;27;20422;-81
2021/06/14 13:45:36;;;;;;;4.53;2.38;;;30.60;37.20;;;;;;12137213;27;20055;-82
2021/06/14 13:51:23;;;;;;;3.63;2.40;;;30.50;36.50;;;;;;12139696;27;20509;-81
2021/06/14 13:57:14;;;;;;;4.63;1.85;;;30.60;36.90;;;;;;12143425;27;20520;-75
2021/06/14 14:03:01;;;;;;;5.15;2.40;;;30.80;37.60;;;;;;12166249;27;20070;-79
2021/06/14 14:08:50;;;;;;;13.23;2.50;;;30.90;36.70;;;;;;12202552;27;20061;-78
2021/06/14 14:14:39;;;;;;;3.75;2.05;;;31.00;37.50;;;;;;12183483;27;20146;-78
2021/06/14 14:20:26;;;;;;;8.73;2.70;;;31.00;37.90;;;;;;12144370;27;20040;-78
2021/06/14 14:26:13;;;;;;;3.65;2.28;;;31.20;37.90;;;;;;12127662;28;20528;-79
2021/06/14 14:32:04;;;;;;;8.70;2.30;;;31.30;37.80;;;;;;12113030;28;20113;-79
2021/06/14 14:38:01;;;;;;;2.97;2.05;;;31.30;36.10;;;;;;12137663;27;20050;-77
2021/06/14 14:43:50;;;;;;;6.00;2.00;;;31.20;36.80;;;;;;12149899;27;20046;-78
2021/06/14 14:49:39;;;;;;;5.13;2.13;;;31.40;38.60;;;;;;12136692;27;20513;-77
2021/06/14 14:55:28;;;;;;;4.78;2.00;;;31.40;36.70;;;;;;12154990;27;20044;-79
2021/06/14 15:01:15;;;;;;;4.35;1.90;;;31.40;37.20;;;;;;12130522;28;20417;-76
2021/06/14 15:07:05;;;;;;;5.18;2.10;;;31.50;38.80;;;;;;12165655;27;20055;-76
2021/06/14 15:12:52;;;;;;;6.60;2.30;;;31.80;37.80;;;;;;12122525;27;20043;-76
2021/06/14 15:18:39;;;;;;;2.97;1.92;;;32.10;37.50;;;;;;12114460;28;20055;-76
2021/06/14 15:24:27;;;;;;;8.15;2.03;;;32.20;37.70;;;;;;12116169;27;20060;-76
2021/06/14 15:30:16;;;;;;;6.05;2.40;;;32.40;37.00;;;;;;12134963;27;20055;-76
2021/06/14 15:36:05;;;;;;;3.40;2.30;;;33.00;36.90;;;;;;12136017;27;20064;-76
2021/06/14 15:41:54;;;;;;;5.40;2.38;;;34.30;36.40;;;;;;12135528;27;20135;-77
2021/06/14 15:47:41;;;;;;;4.15;1.98;;;35.90;34.10;;;;;;12145734;27;20043;-77
2021/06/14 15:53:28;;;;;;;3.60;1.92;;;37.10;33.90;;;;;;12158029;27;20043;-77
2021/06/14 15:59:16;;;;;;;3.88;1.77;;;37.90;32.20;;;;;;12179983;27;20052;-77
2021/06/14 16:05:04;;;;;;;6.55;2.38;;;38.20;32.60;;;;;;12137007;27;20043;-77
2021/06/14 16:10:52;;;;;;;2.15;1.80;;;39.20;32.70;;;;;;12185102;27;20424;-78
2021/06/14 16:16:41;;;;;;;3.47;1.80;;;39.70;31.80;;;;;;12181785;27;20063;-77
2021/06/14 16:22:28;;;;;;;5.53;1.90;;;40.40;31.00;;;;;;12186608;27;20423;-79
2021/06/14 16:28:14;;;;;;;2.92;1.63;;;40.40;30.00;;;;;;12158673;27;20051;-76
2021/06/14 16:34:03;;;;;;;2.28;1.50;;;40.50;29.50;;;;;;12154467;27;20043;-76
2021/06/14 16:39:50;;;;;;;2.90;1.55;;;40.70;30.00;;;;;;12147412;27;20058;-75
2021/06/14 16:45:37;;;;;;;3.08;1.80;;;41.00;30.60;;;;;;12171638;27;20096;-76
2021/06/14 16:51:25;;;;;;;7.93;1.95;;;40.80;30.00;;;;;;12173428;27;20059;-76
2021/06/14 16:57:12;;;;;;;2.88;1.70;;;40.40;30.70;;;;;;12162427;27;20058;-75
2021/06/14 17:02:59;;;;;;;4.78;1.55;;;40.50;31.70;;;;;;12121275;27;20055;-75
2021/06/14 17:08:47;;;;;;;5.05;1.80;;;41.50;31.80;;;;;;12131161;27;20723;-75
2021/06/14 17:14:38;;;;;;;2.28;1.60;;;41.60;31.20;;;;;;12173989;27;20111;-76
2021/06/14 17:20:26;;;;;;;3.27;1.60;;;42.70;30.60;;;;;;12145645;27;20395;-76
2021/06/14 17:26:14;;;;;;;3.95;1.63;;;42.80;29.90;;;;;;12134822;27;20410;-78
2021/06/14 17:32:01;;;;;;;2.60;1.48;;;43.40;30.00;;;;;;12127971;27;20051;-79
2021/06/14 17:37:48;;;;;;;4.65;1.73;;;43.10;29.80;;;;;;12132103;27;20534;-78
2021/06/14 17:43:37;;;;;;;2.33;1.25;;;43.60;30.00;;;;;;12131493;27;20059;-80
2021/06/14 17:49:24;;;;;;;2.28;1.50;;;43.60;29.90;;;;;;12130844;27;20052;-80
2021/06/14 17:55:12;;;;;;;3.58;1.52;;;43.90;29.20;;;;;;12151775;27;20051;-78
2021/06/14 18:01:00;;;;;;;4.05;1.30;;;44.30;29.40;;;;;;12126285;27;20055;-80
2021/06/14 18:06:49;;;;;;;3.33;1.30;;;44.20;29.00;;;;;;12125699;28;20066;-76
2021/06/14 18:12:36;;;;;;;5.68;1.52;;;43.80;29.40;;;;;;12143834;27;20051;-77
2021/06/14 18:18:24;;;;;;;3.83;1.40;;;43.30;29.70;;;;;;12143880;27;20043;-80
2021/06/14 18:24:11;;;;;;;1.65;1.42;;;43.10;30.00;;;;;;12143760;27;20047;-80
2021/06/14 18:29:59;;;;;;;2.67;1.30;;;42.80;30.50;;;;;;12134521;28;20055;-79
2021/06/14 18:35:49;;;;;;;2.90;1.60;;;42.60;31.20;;;;;;12157508;27;20055;-80
2021/06/14 18:41:41;;;;;;;3.83;1.48;;;42.60;31.60;;;;;;12151495;28;20054;-82
2021/06/14 18:47:28;;;;;;;3.22;1.70;;;42.50;31.50;;;;;;12192525;27;20782;-80
2021/06/14 18:53:17;;;;;;;2.03;1.67;;;41.80;32.70;;;;;;12197242;27;20043;-78
2021/06/14 18:59:04;;;;;;;1.88;1.60;;;41.40;33.00;;;;;;12165380;27;20062;-79
2021/06/14 19:04:51;;;;;;;5.57;1.67;;;41.00;33.60;;;;;;12138627;28;20056;-83
2021/06/14 19:10:40;;;;;;;3.95;1.88;;;40.30;34.90;;;;;;12137316;27;20055;-83
2021/06/14 19:16:28;;;;;;;4.07;1.67;;;39.80;36.10;;;;;;12141073;27;20054;-80
2021/06/14 19:22:15;;;;;;;3.28;1.50;;;38.20;38.30;;;;;;12129934;27;20060;-79
2021/06/14 19:28:03;;;;;;;7.43;2.72;;;35.90;42.30;;;;;;12158758;27;20050;-78
2021/06/14 19:33:50;;;;;;;5.40;2.00;;;34.10;45.10;;;;;;12146663;27;20047;-79
2021/06/14 19:39:38;;;;;;;4.45;1.70;;;33.00;47.30;;;;;;12144642;27;20058;-79
2021/06/14 19:45:27;;;;;;;3.33;2.15;;;32.10;49.00;;;;;;12137026;27;20047;-80
2021/06/14 19:51:14;;;;;;;3.50;2.20;;;31.50;50.50;;;;;;12149854;27;20055;-79
2021/06/14 19:57:01;;;;;;;5.95;2.65;;;31.10;51.80;;;;;;12151724;27;20052;-78
2021/06/14 20:02:49;;;;;;;4.53;2.10;;;30.80;53.00;;;;;;12148239;27;20043;-79
2021/06/14 20:08:36;;;;;;;6.13;2.10;;;30.50;53.90;;;;;;12157810;27;20048;-80
2021/06/14 20:14:23;;;;;;;4.93;2.35;;;30.20;54.80;;;;;;12139414;27;20096;-79
2021/06/14 20:20:13;;;;;;;4.05;2.72;;;30.00;55.50;;;;;;12136713;27;20426;-79
2021/06/14 20:26:00;;;;;;;5.80;2.65;;;29.80;56.30;;;;;;12137652;27;20052;-80
2021/06/14 20:31:47;;;;;;;7.50;2.95;;;29.70;56.90;;;;;;12132384;27;20059;-79
2021/06/14 20:37:36;;;;;;;5.10;2.65;;;29.60;57.40;;;;;;12138746;27;20051;-80
2021/06/14 20:43:23;;;;;;;9.10;2.80;;;29.50;57.80;;;;;;12160027;27;20051;-80
2021/06/14 20:49:10;;;;;;;8.90;3.10;;;29.40;58.30;;;;;;12119691;27;20107;-81
2021/06/14 20:54:59;;;;;;;4.63;2.80;;;29.30;58.50;;;;;;12120805;27;20043;-81
2021/06/14 21:00:45;;;;;;;8.00;2.92;;;29.20;59.00;;;;;;12118421;27;20040;-80
2021/06/14 21:06:32;;;;;;;8.90;2.92;;;29.10;60.20;;;;;;12110453;27;20464;-81
2021/06/14 21:12:21;;;;;;;5.95;2.70;;;29.00;60.00;;;;;;12108889;27;20101;-80
2021/06/14 21:18:09;;;;;;;4.78;2.50;;;29.00;60.10;;;;;;12115876;27;20051;-80
2021/06/14 21:23:56;;;;;;;5.55;2.88;;;29.00;60.30;;;;;;12117998;27;20052;-81
2021/06/14 21:29:44;;;;;;;5.68;2.88;;;28.80;60.80;;;;;;12116099;27;20473;-81
2021/06/14 21:35:31;;;;;;;5.63;2.70;;;28.70;61.50;;;;;;12118443;27;20071;-80
2021/06/14 21:41:18;;;;;;;4.00;3.00;;;28.50;61.70;;;;;;12115255;27;20063;-81
2021/06/14 21:47:07;;;;;;;5.30;3.05;;;28.40;62.40;;;;;;12113399;27;20047;-80
2021/06/14 21:52:53;;;;;;;6.95;3.35;;;28.20;63.30;;;;;;12117792;27;20391;-79
2021/06/14 21:58:40;;;;;;;11.45;3.60;;;28.10;63.80;;;;;;12113649;27;20051;-80
2021/06/14 22:04:28;;;;;;;4.88;3.10;;;28.10;64.50;;;;;;12144991;27;20721;-80
2021/06/14 22:10:15;;;;;;;3.25;2.95;;;27.90;64.90;;;;;;12137042;27;20071;-79
2021/06/14 22:16:04;;;;;;;5.30;3.20;;;27.80;65.60;;;;;;12139106;27;20101;-80
2021/06/14 22:21:53;;;;;;;7.25;2.88;;;27.70;65.80;;;;;;12120683;27;20059;-80
2021/06/14 22:27:41;;;;;;;4.65;2.67;;;27.60;66.10;;;;;;12110037;27;20059;-80
2021/06/14 22:33:27;;;;;;;6.38;3.47;;;27.60;66.50;;;;;;12112873;27;20047;-79
2021/06/14 22:39:16;;;;;;;5.20;3.38;;;27.50;67.30;;;;;;12108045;27;20048;-80
2021/06/14 22:45:03;;;;;;;7.22;3.47;;;27.40;67.70;;;;;;12112764;27;20382;-79
2021/06/14 22:50:50;;;;;;;4.70;2.80;;;27.30;67.90;;;;;;12116920;27;20043;-77
2021/06/14 22:56:38;;;;;;;7.28;3.70;;;27.20;68.30;;;;;;12086013;27;20052;-75
2021/06/14 23:02:25;;;;;;;5.80;3.38;;;27.30;68.40;;;;;;12089013;27;20386;-75
2021/06/14 23:08:12;;;;;;;7.00;3.70;;;27.30;68.30;;;;;;12088339;27;20047;-74
2021/06/14 23:14:00;;;;;;;5.20;3.58;;;27.40;68.30;;;;;;12090726;27;20048;-75
2021/06/14 23:19:47;;;;;;;9.07;3.58;;;27.20;68.70;;;;;;12091231;27;20063;-76
2021/06/14 23:25:34;;;;;;;5.40;3.80;;;27.20;68.80;;;;;;12092723;27;20048;-75
2021/06/14 23:31:22;;;;;;;8.18;3.50;;;27.20;69.00;;;;;;12104645;27;20079;-75
2021/06/14 23:37:09;;;;;;;6.80;3.40;;;27.10;69.40;;;;;;12128251;27;20056;-75
2021/06/14 23:42:56;;;;;;;5.68;3.30;;;27.00;69.70;;;;;;12126543;27;20063;-75
2021/06/14 23:48:44;;;;;;;4.15;3.20;;;27.00;69.50;;;;;;12165325;27;20060;-75
2021/06/14 23:54:31;;;;;;;4.65;3.05;;;27.00;69.80;;;;;;12121596;27;20048;-75
